sensor_id;sensor_type;location;lat;lon;timestamp;temperature;humidity
6054;DHT22;3055;50.886;14.814;2023-02-28T00:01:35;-0.50;1.00
6054;DHT22;3055;50.886;14.814;2023-02-28T00:04:04;-0.50;1.00
6054;DHT22;3055;50.886;14.814;2023-02-28T00:06:31;-0.50;1.00
6054;DHT22;3055;50.886;14.814;2023-02-28T00:08:58;-0.50;1.00
6054;DHT22;3055;50.886;14.814;2023-02-28T00:11:25;-0.50;1.00
6054;DHT22;3055;50.886;14.814;2023-02-28T00:13:52;-0.60;1.00
6054;DHT22;3055;50.886;14.814;2023-02-28T00:16:20;-0.70;1.00
6054;DHT22;3055;50.886;14.814;2023-02-28T00:18:48;-0.70;1.00
6054;DHT22;3055;50.886;14.814;2023-02-28T00:21:18;-0.80;1.00
6054;DHT22;3055;50.886;14.814;2023-02-28T00:23:46;-0.90;1.00
6054;DHT22;3055;50.886;14.814;2023-02-28T00:26:13;-1.20;1.00
6054;DHT22;3055;50.886;14.814;2023-02-28T00:28:40;-1.40;1.00
6054;DHT22;3055;50.886;14.814;2023-02-28T00:31:07;-1.60;16.60
6054;DHT22;3055;50.886;14.814;2023-02-28T00:33:34;-1.70;64.00
6054;DHT22;3055;50.886;14.814;2023-02-28T00:36:03;-1.80;99.90
6054;DHT22;3055;50.886;14.814;2023-02-28T00:38:32;-1.70;99.90
6054;DHT22;3055;50.886;14.814;2023-02-28T00:40:59;-1.50;99.90
6054;DHT22;3055;50.886;14.814;2023-02-28T00:43:31;-1.60;99.90
6054;DHT22;3055;50.886;14.814;2023-02-28T00:45:58;-1.70;99.90
6054;DHT22;3055;50.886;14.814;2023-02-28T00:48:25;-1.90;99.90
6054;DHT22;3055;50.886;14.814;2023-02-28T00:50:53;-1.90;99.90
6054;DHT22;3055;50.886;14.814;2023-02-28T00:53:20;-2.00;99.90
6054;DHT22;3055;50.886;14.814;2023-02-28T00:55:49;-2.10;99.90
6054;DHT22;3055;50.886;14.814;2023-02-28T00:58:16;-2.30;99.90
6054;DHT22;3055;50.886;14.814;2023-02-28T01:00:43;-2.20;99.90
6054;DHT22;3055;50.886;14.814;2023-02-28T01:03:15;-2.20;99.90
6054;DHT22;3055;50.886;14.814;2023-02-28T01:05:42;-2.20;99.90
6054;DHT22;3055;50.886;14.814;2023-02-28T01:08:09;-2.30;99.90
6054;DHT22;3055;50.886;14.814;2023-02-28T01:10:36;-2.40;99.90
6054;DHT22;3055;50.886;14.814;2023-02-28T01:13:05;-2.50;99.90
6054;DHT22;3055;50.886;14.814;2023-02-28T01:15:32;-2.60;99.90
6054;DHT22;3055;50.886;14.814;2023-02-28T01:17:59;-2.60;99.90
6054;DHT22;3055;50.886;14.814;2023-02-28T01:20:27;-2.50;99.90
6054;DHT22;3055;50.886;14.814;2023-02-28T01:22:54;-2.60;99.90
6054;DHT22;3055;50.886;14.814;2023-02-28T01:25:21;-2.70;99.90
6054;DHT22;3055;50.886;14.814;2023-02-28T01:27:48;-2.60;99.90
6054;DHT22;3055;50.886;14.814;2023-02-28T01:30:17;-2.60;99.90
6054;DHT22;3055;50.886;14.814;2023-02-28T01:32:44;-2.60;99.90
6054;DHT22;3055;50.886;14.814;2023-02-28T01:35:11;-2.60;99.90
6054;DHT22;3055;50.886;14.814;2023-02-28T01:37:38;-2.40;99.90
6054;DHT22;3055;50.886;14.814;2023-02-28T01:40:06;-2.40;99.90
6054;DHT22;3055;50.886;14.814;2023-02-28T01:42:34;-2.40;99.90
6054;DHT22;3055;50.886;14.814;2023-02-28T01:45:06;-2.40;99.90
6054;DHT22;3055;50.886;14.814;2023-02-28T01:47:38;-2.40;99.90
6054;DHT22;3055;50.886;14.814;2023-02-28T01:50:09;-2.20;99.90
6054;DHT22;3055;50.886;14.814;2023-02-28T01:52:37;-2.30;99.90
6054;DHT22;3055;50.886;14.814;2023-02-28T01:55:06;-2.40;99.90
6054;DHT22;3055;50.886;14.814;2023-02-28T01:57:36;-2.30;99.90
6054;DHT22;3055;50.886;14.814;2023-02-28T02:00:08;-2.20;99.90
6054;DHT22;3055;50.886;14.814;2023-02-28T02:02:40;-2.30;99.90
6054;DHT22;3055;50.886;14.814;2023-02-28T02:05:10;-2.50;99.90
6054;DHT22;3055;50.886;14.814;2023-02-28T02:07:41;-2.40;99.90
6054;DHT22;3055;50.886;14.814;2023-02-28T02:10:12;-2.50;99.90
6054;DHT22;3055;50.886;14.814;2023-02-28T02:15:34;-2.50;99.90
6054;DHT22;3055;50.886;14.814;2023-02-28T02:18:09;-2.60;99.90
6054;DHT22;3055;50.886;14.814;2023-02-28T02:21:21;-2.50;99.90
6054;DHT22;3055;50.886;14.814;2023-02-28T02:26:55;-2.70;99.90
6054;DHT22;3055;50.886;14.814;2023-02-28T02:29:52;-2.80;99.90
6054;DHT22;3055;50.886;14.814;2023-02-28T02:33:07;-2.90;99.90
6054;DHT22;3055;50.886;14.814;2023-02-28T02:35:40;-3.00;99.90
6054;DHT22;3055;50.886;14.814;2023-02-28T02:38:13;-2.90;99.90
6054;DHT22;3055;50.886;14.814;2023-02-28T02:40:46;-3.00;99.90
6054;DHT22;3055;50.886;14.814;2023-02-28T02:43:19;-3.10;99.90
6054;DHT22;3055;50.886;14.814;2023-02-28T02:45:51;-3.10;99.90
6054;DHT22;3055;50.886;14.814;2023-02-28T02:48:21;-3.10;99.90
6054;DHT22;3055;50.886;14.814;2023-02-28T02:50:55;-3.20;99.90
6054;DHT22;3055;50.886;14.814;2023-02-28T02:53:26;-3.10;99.90
6054;DHT22;3055;50.886;14.814;2023-02-28T02:55:55;-3.20;99.90
6054;DHT22;3055;50.886;14.814;2023-02-28T02:58:26;-3.20;99.90
6054;DHT22;3055;50.886;14.814;2023-02-28T03:00:58;-3.20;99.90
6054;DHT22;3055;50.886;14.814;2023-02-28T03:03:27;-3.20;99.90
6054;DHT22;3055;50.886;14.814;2023-02-28T03:05:58;-3.20;99.90
6054;DHT22;3055;50.886;14.814;2023-02-28T03:08:26;-3.30;99.90
6054;DHT22;3055;50.886;14.814;2023-02-28T03:10:56;-3.30;99.90
6054;DHT22;3055;50.886;14.814;2023-02-28T03:13:40;-3.30;99.90
6054;DHT22;3055;50.886;14.814;2023-02-28T03:16:29;-3.40;99.90
6054;DHT22;3055;50.886;14.814;2023-02-28T03:19:06;-3.40;99.90
6054;DHT22;3055;50.886;14.814;2023-02-28T03:21:42;-3.40;99.90
6054;DHT22;3055;50.886;14.814;2023-02-28T03:24:13;-3.50;99.90
6054;DHT22;3055;50.886;14.814;2023-02-28T03:26:46;-3.50;99.90
6054;DHT22;3055;50.886;14.814;2023-02-28T03:29:23;-3.60;99.90
6054;DHT22;3055;50.886;14.814;2023-02-28T03:31:54;-3.60;99.90
6054;DHT22;3055;50.886;14.814;2023-02-28T03:34:29;-3.50;99.90
6054;DHT22;3055;50.886;14.814;2023-02-28T03:37:02;-3.50;99.90
6054;DHT22;3055;50.886;14.814;2023-02-28T03:39:35;-3.50;99.90
6054;DHT22;3055;50.886;14.814;2023-02-28T03:42:07;-3.40;99.90
6054;DHT22;3055;50.886;14.814;2023-02-28T03:44:39;-3.50;99.90
6054;DHT22;3055;50.886;14.814;2023-02-28T03:47:10;-3.60;99.90
6054;DHT22;3055;50.886;14.814;2023-02-28T03:49:44;-3.50;99.90
6054;DHT22;3055;50.886;14.814;2023-02-28T03:52:15;-3.60;99.90
6054;DHT22;3055;50.886;14.814;2023-02-28T03:54:46;-3.70;99.90
6054;DHT22;3055;50.886;14.814;2023-02-28T03:57:21;-3.70;99.90
6054;DHT22;3055;50.886;14.814;2023-02-28T03:59:54;-3.70;99.90
6054;DHT22;3055;50.886;14.814;2023-02-28T04:02:23;-3.80;99.90
6054;DHT22;3055;50.886;14.814;2023-02-28T04:04:50;-3.90;99.90
6054;DHT22;3055;50.886;14.814;2023-02-28T04:07:19;-4.00;99.90
6054;DHT22;3055;50.886;14.814;2023-02-28T04:09:46;-4.00;99.90
6054;DHT22;3055;50.886;14.814;2023-02-28T04:12:13;-4.10;99.90
6054;DHT22;3055;50.886;14.814;2023-02-28T04:14:40;-4.00;99.90
6054;DHT22;3055;50.886;14.814;2023-02-28T04:17:07;-4.10;99.90
6054;DHT22;3055;50.886;14.814;2023-02-28T04:19:34;-4.20;99.90
6054;DHT22;3055;50.886;14.814;2023-02-28T04:22:01;-4.20;99.90
6054;DHT22;3055;50.886;14.814;2023-02-28T04:24:30;-4.20;99.90
6054;DHT22;3055;50.886;14.814;2023-02-28T04:26:58;-4.20;99.90
6054;DHT22;3055;50.886;14.814;2023-02-28T04:29:27;-4.30;99.90
6054;DHT22;3055;50.886;14.814;2023-02-28T04:31:55;-4.20;99.90
6054;DHT22;3055;50.886;14.814;2023-02-28T04:34:24;-4.20;99.90
6054;DHT22;3055;50.886;14.814;2023-02-28T04:36:52;-4.20;99.90
6054;DHT22;3055;50.886;14.814;2023-02-28T04:39:20;-4.20;99.90
6054;DHT22;3055;50.886;14.814;2023-02-28T04:41:48;-4.20;99.90
6054;DHT22;3055;50.886;14.814;2023-02-28T04:44:16;-4.20;99.90
6054;DHT22;3055;50.886;14.814;2023-02-28T04:46:43;-4.20;99.90
6054;DHT22;3055;50.886;14.814;2023-02-28T04:49:11;-4.30;99.90
6054;DHT22;3055;50.886;14.814;2023-02-28T04:51:38;-4.40;99.90
6054;DHT22;3055;50.886;14.814;2023-02-28T04:54:06;-4.40;99.90
6054;DHT22;3055;50.886;14.814;2023-02-28T04:56:33;-4.40;99.90
6054;DHT22;3055;50.886;14.814;2023-02-28T04:59:02;-4.50;99.90
6054;DHT22;3055;50.886;14.814;2023-02-28T05:01:31;-4.40;99.90
6054;DHT22;3055;50.886;14.814;2023-02-28T05:04:01;-4.50;99.90
6054;DHT22;3055;50.886;14.814;2023-02-28T05:06:31;-4.50;99.90
6054;DHT22;3055;50.886;14.814;2023-02-28T05:08:59;-4.50;99.90
6054;DHT22;3055;50.886;14.814;2023-02-28T05:11:28;-4.50;99.90
6054;DHT22;3055;50.886;14.814;2023-02-28T05:14:00;-4.40;99.90
6054;DHT22;3055;50.886;14.814;2023-02-28T05:16:29;-4.40;99.90
6054;DHT22;3055;50.886;14.814;2023-02-28T05:18:56;-4.30;99.90
6054;DHT22;3055;50.886;14.814;2023-02-28T05:21:26;-4.20;99.90
6054;DHT22;3055;50.886;14.814;2023-02-28T05:23:55;-4.30;99.90
6054;DHT22;3055;50.886;14.814;2023-02-28T05:26:23;-4.20;99.90
6054;DHT22;3055;50.886;14.814;2023-02-28T05:28:50;-4.30;99.90
6054;DHT22;3055;50.886;14.814;2023-02-28T05:31:17;-4.40;99.90
6054;DHT22;3055;50.886;14.814;2023-02-28T05:33:46;-4.50;99.90
6054;DHT22;3055;50.886;14.814;2023-02-28T05:36:14;-4.60;99.90
6054;DHT22;3055;50.886;14.814;2023-02-28T05:38:41;-4.70;99.90
6054;DHT22;3055;50.886;14.814;2023-02-28T05:41:08;-4.70;99.90
6054;DHT22;3055;50.886;14.814;2023-02-28T05:43:37;-4.70;99.90
6054;DHT22;3055;50.886;14.814;2023-02-28T05:46:05;-4.60;99.90
6054;DHT22;3055;50.886;14.814;2023-02-28T05:48:32;-4.60;99.90
6054;DHT22;3055;50.886;14.814;2023-02-28T05:51:01;-4.60;99.90
6054;DHT22;3055;50.886;14.814;2023-02-28T05:53:28;-4.50;99.90
6054;DHT22;3055;50.886;14.814;2023-02-28T05:55:55;-4.50;99.90
6054;DHT22;3055;50.886;14.814;2023-02-28T05:58:23;-4.50;99.90
6054;DHT22;3055;50.886;14.814;2023-02-28T06:00:51;-4.60;99.90
6054;DHT22;3055;50.886;14.814;2023-02-28T06:03:18;-4.60;99.90
6054;DHT22;3055;50.886;14.814;2023-02-28T06:05:45;-4.60;99.90
6054;DHT22;3055;50.886;14.814;2023-02-28T06:08:14;-4.50;99.90
6054;DHT22;3055;50.886;14.814;2023-02-28T06:10:41;-4.60;99.90
6054;DHT22;3055;50.886;14.814;2023-02-28T06:13:08;-4.50;99.90
6054;DHT22;3055;50.886;14.814;2023-02-28T06:15:35;-4.40;99.90
6054;DHT22;3055;50.886;14.814;2023-02-28T06:18:02;-4.40;99.90
6054;DHT22;3055;50.886;14.814;2023-02-28T06:20:30;-4.30;99.90
6054;DHT22;3055;50.886;14.814;2023-02-28T06:22:57;-4.30;99.90
6054;DHT22;3055;50.886;14.814;2023-02-28T06:25:27;-4.30;99.90
6054;DHT22;3055;50.886;14.814;2023-02-28T06:27:55;-4.20;99.90
6054;DHT22;3055;50.886;14.814;2023-02-28T06:30:22;-4.20;99.90
6054;DHT22;3055;50.886;14.814;2023-02-28T06:32:52;-4.20;99.90
6054;DHT22;3055;50.886;14.814;2023-02-28T06:35:20;-4.10;99.90
6054;DHT22;3055;50.886;14.814;2023-02-28T06:37:47;-4.10;99.90
6054;DHT22;3055;50.886;14.814;2023-02-28T06:40:14;-4.00;99.90
6054;DHT22;3055;50.886;14.814;2023-02-28T06:42:43;-3.90;99.90
6054;DHT22;3055;50.886;14.814;2023-02-28T06:45:10;-3.80;99.90
6054;DHT22;3055;50.886;14.814;2023-02-28T06:47:40;-3.80;99.90
6054;DHT22;3055;50.886;14.814;2023-02-28T06:50:09;-3.70;99.90
6054;DHT22;3055;50.886;14.814;2023-02-28T06:52:36;-3.60;99.90
6054;DHT22;3055;50.886;14.814;2023-02-28T06:55:04;-3.60;99.90
6054;DHT22;3055;50.886;14.814;2023-02-28T06:57:33;-3.50;99.90
6054;DHT22;3055;50.886;14.814;2023-02-28T07:00:05;-3.40;99.90
6054;DHT22;3055;50.886;14.814;2023-02-28T07:02:33;-3.30;99.90
6054;DHT22;3055;50.886;14.814;2023-02-28T07:05:00;-3.20;99.90
6054;DHT22;3055;50.886;14.814;2023-02-28T07:07:28;-3.10;99.90
6054;DHT22;3055;50.886;14.814;2023-02-28T07:09:55;-3.00;99.90
6054;DHT22;3055;50.886;14.814;2023-02-28T07:12:22;-2.80;99.90
6054;DHT22;3055;50.886;14.814;2023-02-28T07:14:49;-2.70;99.90
6054;DHT22;3055;50.886;14.814;2023-02-28T07:17:17;-2.60;99.90
6054;DHT22;3055;50.886;14.814;2023-02-28T07:19:44;-2.50;99.90
6054;DHT22;3055;50.886;14.814;2023-02-28T07:22:12;-2.40;99.90
6054;DHT22;3055;50.886;14.814;2023-02-28T07:24:39;-2.20;99.90
6054;DHT22;3055;50.886;14.814;2023-02-28T07:27:06;-2.10;99.90
6054;DHT22;3055;50.886;14.814;2023-02-28T07:29:33;-2.00;99.90
6054;DHT22;3055;50.886;14.814;2023-02-28T07:32:00;-1.90;99.90
6054;DHT22;3055;50.886;14.814;2023-02-28T07:34:28;-1.80;99.90
6054;DHT22;3055;50.886;14.814;2023-02-28T07:36:55;-1.60;99.90
6054;DHT22;3055;50.886;14.814;2023-02-28T07:39:22;-1.50;99.90
6054;DHT22;3055;50.886;14.814;2023-02-28T07:41:49;-1.40;99.90
6054;DHT22;3055;50.886;14.814;2023-02-28T07:44:17;-1.40;93.80
6054;DHT22;3055;50.886;14.814;2023-02-28T07:46:44;-1.30;65.70
6054;DHT22;3055;50.886;14.814;2023-02-28T07:49:11;-1.30;43.20
6054;DHT22;3055;50.886;14.814;2023-02-28T07:51:39;-1.20;99.90
6054;DHT22;3055;50.886;14.814;2023-02-28T07:54:07;-1.10;97.60
6054;DHT22;3055;50.886;14.814;2023-02-28T07:56:34;-0.90;94.10
6054;DHT22;3055;50.886;14.814;2023-02-28T07:59:01;-0.80;37.30
6054;DHT22;3055;50.886;14.814;2023-02-28T08:01:28;-0.70;99.90
6054;DHT22;3055;50.886;14.814;2023-02-28T08:03:55;-0.50;56.80
6054;DHT22;3055;50.886;14.814;2023-02-28T08:06:23;-0.40;57.30
6054;DHT22;3055;50.886;14.814;2023-02-28T08:08:53;-0.30;97.40
6054;DHT22;3055;50.886;14.814;2023-02-28T08:11:21;-0.10;73.20
6054;DHT22;3055;50.886;14.814;2023-02-28T08:13:49;0.00;99.90
6054;DHT22;3055;50.886;14.814;2023-02-28T08:16:16;0.10;30.70
6054;DHT22;3055;50.886;14.814;2023-02-28T08:18:47;0.20;1.00
6054;DHT22;3055;50.886;14.814;2023-02-28T08:21:14;0.30;1.00
6054;DHT22;3055;50.886;14.814;2023-02-28T08:23:41;0.40;1.00
6054;DHT22;3055;50.886;14.814;2023-02-28T08:26:10;0.60;1.00
6054;DHT22;3055;50.886;14.814;2023-02-28T08:28:37;0.70;1.00
6054;DHT22;3055;50.886;14.814;2023-02-28T08:31:08;0.70;1.00
6054;DHT22;3055;50.886;14.814;2023-02-28T08:33:36;0.70;99.90
6054;DHT22;3055;50.886;14.814;2023-02-28T08:36:05;0.80;99.90
6054;DHT22;3055;50.886;14.814;2023-02-28T08:38:32;1.00;99.90
6054;DHT22;3055;50.886;14.814;2023-02-28T08:41:00;1.10;99.90
6054;DHT22;3055;50.886;14.814;2023-02-28T08:43:29;1.20;99.90
6054;DHT22;3055;50.886;14.814;2023-02-28T08:45:56;1.20;99.90
6054;DHT22;3055;50.886;14.814;2023-02-28T08:48:24;1.30;99.90
6054;DHT22;3055;50.886;14.814;2023-02-28T08:50:57;1.40;99.90
6054;DHT22;3055;50.886;14.814;2023-02-28T08:53:25;1.40;99.90
6054;DHT22;3055;50.886;14.814;2023-02-28T08:55:57;1.60;99.90
6054;DHT22;3055;50.886;14.814;2023-02-28T08:58:24;1.80;99.90
6054;DHT22;3055;50.886;14.814;2023-02-28T09:00:52;1.90;99.90
6054;DHT22;3055;50.886;14.814;2023-02-28T09:03:20;1.90;99.90
6054;DHT22;3055;50.886;14.814;2023-02-28T09:05:54;1.90;99.90
6054;DHT22;3055;50.886;14.814;2023-02-28T09:08:22;2.00;99.90
6054;DHT22;3055;50.886;14.814;2023-02-28T09:10:49;2.10;99.90
6054;DHT22;3055;50.886;14.814;2023-02-28T09:13:16;2.20;99.90
6054;DHT22;3055;50.886;14.814;2023-02-28T09:15:44;2.30;99.90
6054;DHT22;3055;50.886;14.814;2023-02-28T09:18:12;2.40;99.90
6054;DHT22;3055;50.886;14.814;2023-02-28T09:20:40;2.30;99.90
6054;DHT22;3055;50.886;14.814;2023-02-28T09:23:07;2.30;99.90
6054;DHT22;3055;50.886;14.814;2023-02-28T09:25:35;2.40;99.90
6054;DHT22;3055;50.886;14.814;2023-02-28T09:28:03;2.40;99.90
6054;DHT22;3055;50.886;14.814;2023-02-28T09:30:30;2.40;99.90
6054;DHT22;3055;50.886;14.814;2023-02-28T09:32:57;2.40;99.90
6054;DHT22;3055;50.886;14.814;2023-02-28T09:35:26;2.60;99.90
6054;DHT22;3055;50.886;14.814;2023-02-28T09:37:53;2.70;94.60
6054;DHT22;3055;50.886;14.814;2023-02-28T09:40:22;2.50;74.20
6054;DHT22;3055;50.886;14.814;2023-02-28T09:42:51;2.50;71.30
6054;DHT22;3055;50.886;14.814;2023-02-28T09:45:24;2.60;71.40
6054;DHT22;3055;50.886;14.814;2023-02-28T09:47:55;2.70;71.30
6054;DHT22;3055;50.886;14.814;2023-02-28T09:50:32;2.90;54.00
6054;DHT22;3055;50.886;14.814;2023-02-28T09:53:03;2.90;47.00
6054;DHT22;3055;50.886;14.814;2023-02-28T09:55:36;2.80;32.90
6054;DHT22;3055;50.886;14.814;2023-02-28T09:58:10;2.70;27.30
6054;DHT22;3055;50.886;14.814;2023-02-28T10:00:42;2.60;19.20
6054;DHT22;3055;50.886;14.814;2023-02-28T10:03:26;2.60;17.90
6054;DHT22;3055;50.886;14.814;2023-02-28T10:06:02;2.70;17.20
6054;DHT22;3055;50.886;14.814;2023-02-28T10:08:35;2.80;11.30
6054;DHT22;3055;50.886;14.814;2023-02-28T10:11:09;2.90;13.70
6054;DHT22;3055;50.886;14.814;2023-02-28T10:13:50;3.00;5.80
6054;DHT22;3055;50.886;14.814;2023-02-28T10:16:31;3.10;3.10
6054;DHT22;3055;50.886;14.814;2023-02-28T10:19:03;3.20;1.00
6054;DHT22;3055;50.886;14.814;2023-02-28T10:21:36;3.10;1.00
6054;DHT22;3055;50.886;14.814;2023-02-28T10:24:13;3.10;1.00
6054;DHT22;3055;50.886;14.814;2023-02-28T10:26:45;3.20;1.00
6054;DHT22;3055;50.886;14.814;2023-02-28T10:29:14;3.30;1.00
6054;DHT22;3055;50.886;14.814;2023-02-28T10:31:41;3.30;1.00
6054;DHT22;3055;50.886;14.814;2023-02-28T10:34:11;3.40;1.00
6054;DHT22;3055;50.886;14.814;2023-02-28T10:36:41;3.50;1.00
6054;DHT22;3055;50.886;14.814;2023-02-28T10:39:35;3.60;1.00
6054;DHT22;3055;50.886;14.814;2023-02-28T10:42:03;3.60;1.00
6054;DHT22;3055;50.886;14.814;2023-02-28T10:44:30;3.70;1.00
6054;DHT22;3055;50.886;14.814;2023-02-28T10:47:01;3.80;1.00
6054;DHT22;3055;50.886;14.814;2023-02-28T10:49:28;3.80;1.00
6054;DHT22;3055;50.886;14.814;2023-02-28T10:51:58;3.70;1.00
6054;DHT22;3055;50.886;14.814;2023-02-28T10:54:30;3.90;1.00
6054;DHT22;3055;50.886;14.814;2023-02-28T10:57:16;4.00;1.00
6054;DHT22;3055;50.886;14.814;2023-02-28T10:59:44;4.10;1.00
6054;DHT22;3055;50.886;14.814;2023-02-28T11:02:30;4.00;1.00
6054;DHT22;3055;50.886;14.814;2023-02-28T11:04:57;3.90;1.00
6054;DHT22;3055;50.886;14.814;2023-02-28T11:07:26;3.80;1.00
6054;DHT22;3055;50.886;14.814;2023-02-28T11:09:55;3.90;1.00
6054;DHT22;3055;50.886;14.814;2023-02-28T11:12:26;4.10;1.00
6054;DHT22;3055;50.886;14.814;2023-02-28T11:14:56;4.20;1.00
6054;DHT22;3055;50.886;14.814;2023-02-28T11:17:26;4.30;1.00
6054;DHT22;3055;50.886;14.814;2023-02-28T11:19:56;4.20;1.00
6054;DHT22;3055;50.886;14.814;2023-02-28T11:22:27;4.20;1.00
6054;DHT22;3055;50.886;14.814;2023-02-28T11:24:57;4.20;1.00
6054;DHT22;3055;50.886;14.814;2023-02-28T11:30:25;4.40;1.00
6054;DHT22;3055;50.886;14.814;2023-02-28T11:32:52;4.60;1.00
6054;DHT22;3055;50.886;14.814;2023-02-28T11:35:23;4.50;1.00
6054;DHT22;3055;50.886;14.814;2023-02-28T11:37:52;4.50;1.00
6054;DHT22;3055;50.886;14.814;2023-02-28T11:40:24;4.80;1.00
6054;DHT22;3055;50.886;14.814;2023-02-28T11:43:02;4.60;1.00
6054;DHT22;3055;50.886;14.814;2023-02-28T11:45:45;4.40;1.00
6054;DHT22;3055;50.886;14.814;2023-02-28T11:48:20;4.40;1.00
6054;DHT22;3055;50.886;14.814;2023-02-28T11:51:05;4.30;1.00
6054;DHT22;3055;50.886;14.814;2023-02-28T11:53:50;4.50;1.00
6054;DHT22;3055;50.886;14.814;2023-02-28T11:56:23;4.80;1.00
6054;DHT22;3055;50.886;14.814;2023-02-28T11:58:59;5.00;1.00
6054;DHT22;3055;50.886;14.814;2023-02-28T12:01:44;5.10;1.00
6054;DHT22;3055;50.886;14.814;2023-02-28T12:04:25;4.90;1.00
6054;DHT22;3055;50.886;14.814;2023-02-28T12:07:00;4.40;1.00
6054;DHT22;3055;50.886;14.814;2023-02-28T12:09:53;4.30;1.00
6054;DHT22;3055;50.886;14.814;2023-02-28T12:12:32;4.40;1.00
6054;DHT22;3055;50.886;14.814;2023-02-28T12:15:28;4.50;1.00
6054;DHT22;3055;50.886;14.814;2023-02-28T12:18:26;4.60;1.00
6054;DHT22;3055;50.886;14.814;2023-02-28T12:21:04;4.80;1.00
6054;DHT22;3055;50.886;14.814;2023-02-28T12:23:47;4.80;1.00
6054;DHT22;3055;50.886;14.814;2023-02-28T12:26:20;5.00;1.00
6054;DHT22;3055;50.886;14.814;2023-02-28T12:28:50;5.10;1.00
6054;DHT22;3055;50.886;14.814;2023-02-28T12:31:20;5.00;1.00
6054;DHT22;3055;50.886;14.814;2023-02-28T12:33:53;5.10;1.00
6054;DHT22;3055;50.886;14.814;2023-02-28T12:36:23;5.00;1.00
6054;DHT22;3055;50.886;14.814;2023-02-28T12:38:55;4.80;1.00
6054;DHT22;3055;50.886;14.814;2023-02-28T12:41:29;4.80;1.00
6054;DHT22;3055;50.886;14.814;2023-02-28T12:44:02;4.90;1.00
6054;DHT22;3055;50.886;14.814;2023-02-28T12:46:32;5.10;1.00
6054;DHT22;3055;50.886;14.814;2023-02-28T12:49:06;5.10;1.00
6054;DHT22;3055;50.886;14.814;2023-02-28T12:51:34;5.30;1.00
6054;DHT22;3055;50.886;14.814;2023-02-28T12:54:10;5.30;1.00
6054;DHT22;3055;50.886;14.814;2023-02-28T12:56:47;5.20;1.00
6054;DHT22;3055;50.886;14.814;2023-02-28T12:59:23;5.00;1.00
6054;DHT22;3055;50.886;14.814;2023-02-28T13:02:02;5.00;1.00
6054;DHT22;3055;50.886;14.814;2023-02-28T13:10:41;4.90;1.00
6054;DHT22;3055;50.886;14.814;2023-02-28T13:13:17;5.10;1.00
6054;DHT22;3055;50.886;14.814;2023-02-28T13:15:58;5.00;1.00
6054;DHT22;3055;50.886;14.814;2023-02-28T13:18:32;5.20;1.00
6054;DHT22;3055;50.886;14.814;2023-02-28T13:21:00;5.30;1.00
6054;DHT22;3055;50.886;14.814;2023-02-28T13:23:58;5.30;1.00
6054;DHT22;3055;50.886;14.814;2023-02-28T13:29:31;5.60;1.00
6054;DHT22;3055;50.886;14.814;2023-02-28T13:32:28;5.80;1.00
6054;DHT22;3055;50.886;14.814;2023-02-28T13:44:03;6.00;1.00
6054;DHT22;3055;50.886;14.814;2023-02-28T13:46:32;5.80;1.00
6054;DHT22;3055;50.886;14.814;2023-02-28T13:49:23;5.90;1.00
6054;DHT22;3055;50.886;14.814;2023-02-28T13:51:51;5.90;1.00
6054;DHT22;3055;50.886;14.814;2023-02-28T13:54:27;6.00;1.00
6054;DHT22;3055;50.886;14.814;2023-02-28T13:57:07;6.10;1.00
6054;DHT22;3055;50.886;14.814;2023-02-28T13:59:43;5.90;1.00
6054;DHT22;3055;50.886;14.814;2023-02-28T14:02:34;6.20;1.00
6054;DHT22;3055;50.886;14.814;2023-02-28T14:05:06;6.50;1.00
6054;DHT22;3055;50.886;14.814;2023-02-28T14:07:43;6.60;1.00
6054;DHT22;3055;50.886;14.814;2023-02-28T14:10:22;6.50;1.00
6054;DHT22;3055;50.886;14.814;2023-02-28T14:13:02;6.30;1.00
6054;DHT22;3055;50.886;14.814;2023-02-28T14:15:43;5.90;1.00
6054;DHT22;3055;50.886;14.814;2023-02-28T14:18:18;6.00;1.00
6054;DHT22;3055;50.886;14.814;2023-02-28T14:20:47;6.10;1.00
6054;DHT22;3055;50.886;14.814;2023-02-28T14:23:26;6.50;1.00
6054;DHT22;3055;50.886;14.814;2023-02-28T14:26:03;6.70;1.00
6054;DHT22;3055;50.886;14.814;2023-02-28T14:28:47;6.60;1.00
6054;DHT22;3055;50.886;14.814;2023-02-28T14:31:23;6.40;1.00
6054;DHT22;3055;50.886;14.814;2023-02-28T14:34:17;6.20;1.00
6054;DHT22;3055;50.886;14.814;2023-02-28T14:36:48;6.40;1.00
6054;DHT22;3055;50.886;14.814;2023-02-28T14:39:20;6.70;1.00
6054;DHT22;3055;50.886;14.814;2023-02-28T14:41:48;6.50;1.00
6054;DHT22;3055;50.886;14.814;2023-02-28T14:44:17;6.30;1.00
6054;DHT22;3055;50.886;14.814;2023-02-28T14:46:46;6.30;1.00
6054;DHT22;3055;50.886;14.814;2023-02-28T14:49:21;6.20;1.00
6054;DHT22;3055;50.886;14.814;2023-02-28T14:51:50;5.60;1.00
6054;DHT22;3055;50.886;14.814;2023-02-28T14:54:28;5.40;1.00
6054;DHT22;3055;50.886;14.814;2023-02-28T14:56:56;5.30;1.00
6054;DHT22;3055;50.886;14.814;2023-02-28T14:59:26;5.30;1.00
6054;DHT22;3055;50.886;14.814;2023-02-28T15:02:17;5.30;1.00
6054;DHT22;3055;50.886;14.814;2023-02-28T15:04:54;5.00;1.00
6054;DHT22;3055;50.886;14.814;2023-02-28T15:07:22;4.90;1.00
6054;DHT22;3055;50.886;14.814;2023-02-28T15:10:08;5.10;1.00
6054;DHT22;3055;50.886;14.814;2023-02-28T15:12:35;5.40;1.00
6054;DHT22;3055;50.886;14.814;2023-02-28T15:15:03;5.30;1.00
6054;DHT22;3055;50.886;14.814;2023-02-28T15:17:30;5.40;1.00
6054;DHT22;3055;50.886;14.814;2023-02-28T15:19:59;5.70;1.00
6054;DHT22;3055;50.886;14.814;2023-02-28T15:22:30;6.30;1.00
6054;DHT22;3055;50.886;14.814;2023-02-28T15:24:59;6.50;1.00
6054;DHT22;3055;50.886;14.814;2023-02-28T15:27:29;6.50;1.00
6054;DHT22;3055;50.886;14.814;2023-02-28T15:29:59;6.40;1.00
6054;DHT22;3055;50.886;14.814;2023-02-28T15:32:29;6.30;1.00
6054;DHT22;3055;50.886;14.814;2023-02-28T15:34:59;6.20;1.00
6054;DHT22;3055;50.886;14.814;2023-02-28T15:37:47;5.80;1.00
6054;DHT22;3055;50.886;14.814;2023-02-28T15:40:17;5.40;1.00
6054;DHT22;3055;50.886;14.814;2023-02-28T15:42:59;5.20;1.00
6054;DHT22;3055;50.886;14.814;2023-02-28T15:45:28;5.10;1.00
6054;DHT22;3055;50.886;14.814;2023-02-28T15:47:55;4.90;1.00
6054;DHT22;3055;50.886;14.814;2023-02-28T15:50:24;4.70;1.00
6054;DHT22;3055;50.886;14.814;2023-02-28T15:52:54;4.50;1.00
6054;DHT22;3055;50.886;14.814;2023-02-28T15:55:23;4.30;1.00
6054;DHT22;3055;50.886;14.814;2023-02-28T15:57:53;4.10;1.00
6054;DHT22;3055;50.886;14.814;2023-02-28T16:00:22;3.90;1.00
6054;DHT22;3055;50.886;14.814;2023-02-28T16:02:51;3.80;1.00
6054;DHT22;3055;50.886;14.814;2023-02-28T16:05:25;3.70;1.00
6054;DHT22;3055;50.886;14.814;2023-02-28T16:07:57;3.60;1.00
6054;DHT22;3055;50.886;14.814;2023-02-28T16:10:26;3.40;1.00
6054;DHT22;3055;50.886;14.814;2023-02-28T16:12:54;3.30;1.00
6054;DHT22;3055;50.886;14.814;2023-02-28T16:15:23;3.20;1.00
6054;DHT22;3055;50.886;14.814;2023-02-28T16:17:52;3.10;1.00
6054;DHT22;3055;50.886;14.814;2023-02-28T16:20:21;3.00;1.00
6054;DHT22;3055;50.886;14.814;2023-02-28T16:22:49;2.90;1.00
6054;DHT22;3055;50.886;14.814;2023-02-28T16:25:18;2.80;1.00
6054;DHT22;3055;50.886;14.814;2023-02-28T16:27:47;2.70;1.00
6054;DHT22;3055;50.886;14.814;2023-02-28T16:30:19;2.60;1.00
6054;DHT22;3055;50.886;14.814;2023-02-28T16:32:47;2.40;1.00
6054;DHT22;3055;50.886;14.814;2023-02-28T16:35:14;2.30;1.00
6054;DHT22;3055;50.886;14.814;2023-02-28T16:37:41;2.20;1.00
6054;DHT22;3055;50.886;14.814;2023-02-28T16:40:14;2.10;1.00
6054;DHT22;3055;50.886;14.814;2023-02-28T16:42:42;2.10;1.00
6054;DHT22;3055;50.886;14.814;2023-02-28T16:45:22;2.10;1.00
6054;DHT22;3055;50.886;14.814;2023-02-28T16:47:49;2.10;1.00
6054;DHT22;3055;50.886;14.814;2023-02-28T16:50:18;2.00;1.00
6054;DHT22;3055;50.886;14.814;2023-02-28T16:52:45;1.70;1.00